Pagina principală
METAR-TAF:

METAR-TAF

Aeroporturi :

Longreach, Australia

Latitudine: 23-26-03S, longitudine: 144-16-49E, elevație: 191 m

Observații meteo curente

Raportul a fost făcut în urmă cu 28 de minute, la 10:00 UTC
Vânt 7 kt de la Sud/Sud-est
Temperatură 16°C
Umiditate 36%
Presiune 1020 hPa
Vizibilitate de 10 km sau mai mult

METAR: YLRE 261000Z AUTO 15007KT 9999 // NCD 16/01 Q1020

Ora: 20:28 (10:28 UTC)


TAF: lipsă

Observații și prognoze meteo pentru peste 4.000 de aeroporturi (rapoarte METAR și TAF).

Stațiile disponibile sunt reprezentate pe hartă prin puncte galbene și roșii.

Țineți indicatorul mouse-ului pe punctul dorit pentru a vedea denumirea stației.

Apoi, faceți clic pentru a vedea observațiile și prognozele meteorologice.

Pentru a schimba harta: Pentru mărire, faceți clic pe butoanele verzi cu cruce neagră; pentru micșorare, pe butonul verde cu o liniuță; pentru hărți învecinate, pe săgețile verzi.


METAR-TAF: